Time,TemperatureF,DewpointF,PressureIn,WindDirection,WindDirectionDegrees,WindSpeedMPH,WindSpeedGustMPH,Humidity,HourlyPrecipIn,Conditions,Clouds,dailyrainin,SoftwareType,DateUTC
2013-01-16 00:02:00,39.8,34.8,30.34,NW,312,1.0,1.0,82,0.00,,,0.00,Wunderground v.1.15,2013-01-16 08:02:00,
2013-01-16 00:08:00,39.8,35.1,30.34,NW,312,0.0,1.0,83,0.00,,,0.00,Wunderground v.1.15,2013-01-16 08:08:00,
2013-01-16 00:14:00,39.9,35.2,30.34,NW,312,1.0,2.0,83,0.00,,,0.00,Wunderground v.1.15,2013-01-16 08:14:00,
2013-01-16 00:20:00,40.4,36.5,30.34,NW,312,0.0,0.0,86,0.00,,,0.00,Wunderground v.1.15,2013-01-16 08:20:00,
2013-01-16 00:26:00,40.5,35.7,30.34,NW,312,0.0,1.0,83,0.00,,,0.00,Wunderground v.1.15,2013-01-16 08:26:00,
2013-01-16 00:32:00,40.2,35.1,30.34,NW,312,0.0,1.0,82,0.00,,,0.00,Wunderground v.1.15,2013-01-16 08:32:00,
2013-01-16 00:38:00,39.8,34.8,30.34,NW,312,1.0,1.0,82,0.00,,,0.00,Wunderground v.1.15,2013-01-16 08:38:00,
2013-01-16 00:44:00,39.4,34.4,30.34,NW,312,1.0,1.0,82,0.00,,,0.00,Wunderground v.1.15,2013-01-16 08:44:00,
2013-01-16 00:50:00,39.0,34.3,30.34,NW,325,1.0,1.0,83,0.00,,,0.00,Wunderground v.1.15,2013-01-16 08:50:00,
2013-01-16 00:56:00,38.8,34.4,30.34,NW,325,1.0,2.0,84,0.00,,,0.00,Wunderground v.1.15,2013-01-16 08:56:00,
2013-01-16 01:02:00,38.6,34.2,30.34,NW,325,1.0,1.0,84,0.00,,,0.00,Wunderground v.1.15,2013-01-16 09:02:00,
2013-01-16 01:08:00,38.5,34.1,30.34,NW,325,0.0,1.0,84,0.00,,,0.00,Wunderground v.1.15,2013-01-16 09:08:00,
2013-01-16 01:14:00,38.3,34.2,30.34,NW,325,0.0,1.0,85,0.00,,,0.00,Wunderground v.1.15,2013-01-16 09:14:00,
2013-01-16 01:20:00,38.2,34.1,30.34,NW,325,0.0,0.0,85,0.00,,,0.00,Wunderground v.1.15,2013-01-16 09:20:00,
2013-01-16 01:26:00,38.1,34.0,30.34,NW,325,0.0,0.0,85,0.00,,,0.00,Wunderground v.1.15,2013-01-16 09:26:00,
2013-01-16 01:32:00,38.0,34.2,30.34,NW,325,0.0,0.0,86,0.00,,,0.00,Wunderground v.1.15,2013-01-16 09:32:00,
2013-01-16 01:38:00,37.8,33.7,30.34,NW,325,0.0,0.0,85,0.00,,,0.00,Wunderground v.1.15,2013-01-16 09:38:00,
2013-01-16 01:44:00,38.2,35.0,30.34,NW,325,0.0,0.0,88,0.00,,,0.00,Wunderground v.1.15,2013-01-16 09:44:00,
2013-01-16 01:50:00,39.7,37.0,30.34,NW,325,0.0,0.0,90,0.00,,,0.00,Wunderground v.1.15,2013-01-16 09:50:00,
2013-01-16 01:56:00,39.2,35.1,30.33,NW,325,0.0,1.0,85,0.00,,,0.00,Wunderground v.1.15,2013-01-16 09:56:00,
2013-01-16 02:02:00,38.6,34.5,30.33,NW,325,0.0,1.0,85,0.00,,,0.00,Wunderground v.1.15,2013-01-16 10:02:00,
2013-01-16 02:08:00,38.5,34.7,30.34,NW,325,0.0,1.0,86,0.00,,,0.00,Wunderground v.1.15,2013-01-16 10:08:00,
2013-01-16 02:14:00,38.0,33.9,30.34,NW,325,0.0,1.0,85,0.00,,,0.00,Wunderground v.1.15,2013-01-16 10:14:00,
2013-01-16 02:20:00,37.7,33.6,30.33,NW,325,0.0,0.0,85,0.00,,,0.00,Wunderground v.1.15,2013-01-16 10:20:00,
2013-01-16 02:26:00,37.3,33.5,30.33,NW,325,0.0,1.0,86,0.00,,,0.00,Wunderground v.1.15,2013-01-16 10:26:00,
2013-01-16 02:32:00,37.1,33.3,30.33,NW,325,0.0,0.0,86,0.00,,,0.00,Wunderground v.1.15,2013-01-16 10:32:00,
2013-01-16 02:38:00,36.9,33.1,30.34,NW,325,0.0,0.0,86,0.00,,,0.00,Wunderground v.1.15,2013-01-16 10:38:00,
2013-01-16 02:44:00,36.8,33.3,30.34,NW,325,0.0,0.0,87,0.00,,,0.00,Wunderground v.1.15,2013-01-16 10:44:00,
2013-01-16 02:50:00,36.6,33.1,30.34,NW,325,0.0,1.0,87,0.00,,,0.00,Wunderground v.1.15,2013-01-16 10:50:00,
2013-01-16 02:56:00,36.5,33.0,30.34,NW,325,1.0,1.0,87,0.00,,,0.00,Wunderground v.1.15,2013-01-16 10:56:00,
2013-01-16 03:02:00,36.5,33.3,30.33,NW,325,0.0,1.0,88,0.00,,,0.00,Wunderground v.1.15,2013-01-16 11:02:00,
2013-01-16 03:08:00,36.7,33.8,30.34,NW,325,0.0,1.0,89,0.00,,,0.00,Wunderground v.1.15,2013-01-16 11:08:00,
2013-01-16 03:14:00,37.5,34.8,30.34,NW,325,0.0,0.0,90,0.00,,,0.00,Wunderground v.1.15,2013-01-16 11:14:00,
2013-01-16 03:20:00,38.0,35.3,30.33,NW,325,0.0,0.0,90,0.00,,,0.00,Wunderground v.1.15,2013-01-16 11:20:00,
2013-01-16 03:25:00,37.4,34.0,30.34,NW,325,0.0,0.0,86,0.00,,,0.00,weatherlink.com 1.10,2013-01-16 11:25:00,
2013-01-16 03:32:00,36.8,33.0,30.33,NW,325,0.0,2.0,86,0.00,,,0.00,Wunderground v.1.15,2013-01-16 11:32:00,
2013-01-16 03:38:00,36.5,32.7,30.33,NW,325,1.0,2.0,86,0.00,,,0.00,Wunderground v.1.15,2013-01-16 11:38:00,
2013-01-16 03:43:00,36.3,33.0,30.33,NW,325,0.0,0.0,87,0.00,,,0.00,weatherlink.com 1.10,2013-01-16 11:43:00,
2013-01-16 03:50:00,36.2,32.7,30.33,NW,325,0.0,0.0,87,0.00,,,0.00,Wunderground v.1.15,2013-01-16 11:50:00,
2013-01-16 03:56:00,36.0,32.5,30.33,NW,325,0.0,1.0,87,0.00,,,0.00,Wunderground v.1.15,2013-01-16 11:56:00,
2013-01-16 04:02:00,35.7,32.2,30.33,NW,325,1.0,1.0,87,0.00,,,0.00,Wunderground v.1.15,2013-01-16 12:02:00,
2013-01-16 04:08:00,35.7,32.2,30.33,NW,325,1.0,2.0,87,0.00,,,0.00,Wunderground v.1.15,2013-01-16 12:08:00,
2013-01-16 04:14:00,35.6,32.1,30.33,NW,325,0.0,1.0,87,0.00,,,0.00,Wunderground v.1.15,2013-01-16 12:14:00,
2013-01-16 04:20:00,35.5,32.0,30.33,NW,325,0.0,1.0,87,0.00,,,0.00,Wunderground v.1.15,2013-01-16 12:20:00,
2013-01-16 04:26:00,35.6,32.1,30.33,NW,325,1.0,1.0,87,0.00,,,0.00,Wunderground v.1.15,2013-01-16 12:26:00,
2013-01-16 04:32:00,35.5,31.7,30.32,NW,325,1.0,1.0,86,0.00,,,0.00,Wunderground v.1.15,2013-01-16 12:32:00,
2013-01-16 04:38:00,35.6,32.4,30.33,NW,325,0.0,1.0,88,0.00,,,0.00,Wunderground v.1.15,2013-01-16 12:38:00,
2013-01-16 04:44:00,35.6,32.4,30.32,NW,325,0.0,1.0,88,0.00,,,0.00,Wunderground v.1.15,2013-01-16 12:44:00,
2013-01-16 04:50:00,35.7,32.2,30.32,NW,325,1.0,1.0,87,0.00,,,0.00,Wunderground v.1.15,2013-01-16 12:50:00,
2013-01-16 04:56:00,35.9,32.1,30.32,NW,325,0.0,1.0,86,0.00,,,0.00,Wunderground v.1.15,2013-01-16 12:56:00,
2013-01-16 05:02:00,35.7,31.9,30.32,NW,325,0.0,0.0,86,0.00,,,0.00,Wunderground v.1.15,2013-01-16 13:02:00,
2013-01-16 05:08:00,35.6,31.8,30.32,NW,325,0.0,0.0,86,0.00,,,0.00,Wunderground v.1.15,2013-01-16 13:08:00,
2013-01-16 05:14:00,35.6,31.8,30.31,NW,325,0.0,0.0,86,0.00,,,0.00,Wunderground v.1.15,2013-01-16 13:14:00,
2013-01-16 05:20:00,35.5,31.4,30.31,NW,325,0.0,0.0,85,0.00,,,0.00,Wunderground v.1.15,2013-01-16 13:20:00,
2013-01-16 05:26:00,35.3,31.2,30.31,NW,325,0.0,0.0,85,0.00,,,0.00,Wunderground v.1.15,2013-01-16 13:26:00,
2013-01-16 05:32:00,35.0,30.9,30.31,NW,325,0.0,0.0,85,0.00,,,0.00,Wunderground v.1.15,2013-01-16 13:32:00,
2013-01-16 05:38:00,34.8,30.8,30.31,NW,325,0.0,0.0,85,0.00,,,0.00,Wunderground v.1.15,2013-01-16 13:38:00,
2013-01-16 05:44:00,34.6,30.8,30.31,NW,325,0.0,0.0,86,0.00,,,0.00,Wunderground v.1.15,2013-01-16 13:44:00,
2013-01-16 05:50:00,34.5,30.7,30.31,NW,325,0.0,0.0,86,0.00,,,0.00,Wunderground v.1.15,2013-01-16 13:50:00,
2013-01-16 05:56:00,34.6,31.1,30.31,NW,325,0.0,0.0,87,0.00,,,0.00,Wunderground v.1.15,2013-01-16 13:56:00,
2013-01-16 06:02:00,34.9,31.7,30.32,NW,325,0.0,1.0,88,0.00,,,0.00,Wunderground v.1.15,2013-01-16 14:02:00,
2013-01-16 06:08:00,35.0,31.5,30.32,NW,325,0.0,1.0,87,0.00,,,0.00,Wunderground v.1.15,2013-01-16 14:08:00,
2013-01-16 06:14:00,34.8,31.3,30.32,NW,325,0.0,0.0,87,0.00,,,0.00,Wunderground v.1.15,2013-01-16 14:14:00,
2013-01-16 06:20:00,34.7,30.9,30.32,NW,325,0.0,0.0,86,0.00,,,0.00,Wunderground v.1.15,2013-01-16 14:20:00,
2013-01-16 06:26:00,34.7,30.9,30.32,NW,325,0.0,0.0,86,0.00,,,0.00,Wunderground v.1.15,2013-01-16 14:26:00,
2013-01-16 06:32:00,35.0,31.5,30.31,NW,325,0.0,0.0,87,0.00,,,0.00,Wunderground v.1.15,2013-01-16 14:32:00,
2013-01-16 06:38:00,35.0,30.9,30.32,NW,325,0.0,0.0,85,0.00,,,0.00,Wunderground v.1.15,2013-01-16 14:38:00,
2013-01-16 06:44:00,34.8,30.8,30.32,NW,325,0.0,0.0,85,0.00,,,0.00,Wunderground v.1.15,2013-01-16 14:44:00,
2013-01-16 06:50:00,34.6,30.6,30.32,NW,325,0.0,0.0,85,0.00,,,0.00,Wunderground v.1.15,2013-01-16 14:50:00,
2013-01-16 06:56:00,34.6,30.8,30.32,NW,325,0.0,0.0,86,0.00,,,0.00,Wunderground v.1.15,2013-01-16 14:56:00,
2013-01-16 07:02:00,34.5,30.7,30.33,NW,325,0.0,1.0,86,0.00,,,0.00,Wunderground v.1.15,2013-01-16 15:02:00,
2013-01-16 07:08:00,34.5,30.7,30.33,NW,325,0.0,1.0,86,0.00,,,0.00,Wunderground v.1.15,2013-01-16 15:08:00,
2013-01-16 07:14:00,34.6,30.8,30.33,ENE,70,0.0,1.0,86,0.00,,,0.00,Wunderground v.1.15,2013-01-16 15:14:00,
2013-01-16 07:20:00,35.1,32.2,30.33,ENE,70,0.0,0.0,89,0.00,,,0.00,Wunderground v.1.15,2013-01-16 15:20:00,
2013-01-16 07:26:00,35.8,32.3,30.33,ENE,70,0.0,1.0,87,0.00,,,0.00,Wunderground v.1.15,2013-01-16 15:26:00,
2013-01-16 07:32:00,36.4,32.9,30.33,ENE,70,0.0,0.0,87,0.00,,,0.00,Wunderground v.1.15,2013-01-16 15:32:00,
2013-01-16 07:38:00,36.2,31.8,30.33,ENE,70,0.0,1.0,84,0.00,,,0.00,Wunderground v.1.15,2013-01-16 15:38:00,
2013-01-16 07:44:00,36.3,31.9,30.33,ENE,70,0.0,0.0,84,0.00,,,0.00,Wunderground v.1.15,2013-01-16 15:44:00,
2013-01-16 07:50:00,36.8,32.1,30.33,ENE,70,0.0,1.0,83,0.00,,,0.00,Wunderground v.1.15,2013-01-16 15:50:00,
2013-01-16 07:56:00,37.4,32.4,30.33,ENE,70,1.0,1.0,82,0.00,,,0.00,Wunderground v.1.15,2013-01-16 15:56:00,
2013-01-16 08:02:00,38.0,32.7,30.34,ENE,70,1.0,1.0,81,0.00,,,0.00,Wunderground v.1.15,2013-01-16 16:02:00,
2013-01-16 08:08:00,38.6,33.0,30.34,ENE,70,0.0,1.0,80,0.00,,,0.00,Wunderground v.1.15,2013-01-16 16:08:00,
2013-01-16 08:14:00,39.3,33.3,30.34,ENE,70,0.0,1.0,79,0.00,,,0.00,Wunderground v.1.15,2013-01-16 16:14:00,
2013-01-16 08:20:00,40.3,33.7,30.34,ENE,70,0.0,0.0,77,0.00,,,0.00,Wunderground v.1.15,2013-01-16 16:20:00,
2013-01-16 08:26:00,41.8,34.1,30.34,ENE,70,0.0,0.0,74,0.00,,,0.00,Wunderground v.1.15,2013-01-16 16:26:00,
2013-01-16 08:32:00,43.1,34.3,30.34,ENE,65,0.0,0.0,71,0.00,,,0.00,Wunderground v.1.15,2013-01-16 16:32:00,
2013-01-16 08:38:00,44.5,34.6,30.34,ENE,64,0.0,0.0,68,0.00,,,0.00,Wunderground v.1.15,2013-01-16 16:38:00,
2013-01-16 08:44:00,45.5,34.8,30.34,ENE,64,0.0,1.0,66,0.00,,,0.00,Wunderground v.1.15,2013-01-16 16:44:00,
2013-01-16 08:50:00,46.3,35.2,30.34,ENE,64,0.0,0.0,65,0.00,,,0.00,Wunderground v.1.15,2013-01-16 16:50:00,
2013-01-16 08:56:00,47.3,34.5,30.34,ENE,64,0.0,0.0,61,0.00,,,0.00,Wunderground v.1.15,2013-01-16 16:56:00,
2013-01-16 09:02:00,48.2,34.5,30.34,ENE,64,0.0,1.0,59,0.00,,,0.00,Wunderground v.1.15,2013-01-16 17:02:00,
2013-01-16 09:08:00,49.5,35.3,30.33,ENE,64,0.0,1.0,58,0.00,,,0.00,Wunderground v.1.15,2013-01-16 17:08:00,
2013-01-16 09:14:00,51.4,34.3,30.33,ENE,64,0.0,1.0,52,0.00,,,0.00,Wunderground v.1.15,2013-01-16 17:14:00,
2013-01-16 09:20:00,51.8,35.0,30.33,ENE,64,0.0,3.0,52,0.00,,,0.00,weatherlink.com 1.10,2013-01-16 17:20:00,
2013-01-16 09:26:00,52.3,34.7,30.33,ENE,64,1.0,1.0,51,0.00,,,0.00,Wunderground v.1.15,2013-01-16 17:26:00,
2013-01-16 09:32:00,52.9,33.7,30.33,ENE,64,0.0,2.0,48,0.00,,,0.00,Wunderground v.1.15,2013-01-16 17:32:00,
2013-01-16 09:38:00,53.3,33.6,30.33,ENE,63,1.0,2.0,47,0.00,,,0.00,Wunderground v.1.15,2013-01-16 17:38:00,
2013-01-16 09:44:00,53.7,33.4,30.33,East,92,1.0,2.0,46,0.00,,,0.00,Wunderground v.1.15,2013-01-16 17:44:00,
2013-01-16 09:50:00,54.2,33.3,30.33,SSW,199,1.0,1.0,45,0.00,,,0.00,Wunderground v.1.15,2013-01-16 17:50:00,
2013-01-16 09:55:00,54.9,34.0,30.32,SSW,199,0.0,3.0,45,0.00,,,0.00,weatherlink.com 1.10,2013-01-16 17:55:00,
2013-01-16 10:02:00,55.7,33.5,30.32,SSW,199,1.0,1.0,43,0.00,,,0.00,Wunderground v.1.15,2013-01-16 18:02:00,
2013-01-16 10:08:00,56.2,34.0,30.32,South,191,1.0,2.0,43,0.00,,,0.00,Wunderground v.1.15,2013-01-16 18:08:00,
2013-01-16 10:14:00,56.8,34.0,30.32,SW,224,0.0,4.0,42,0.00,,,0.00,weatherlink.com 1.10,2013-01-16 18:14:00,
2013-01-16 10:20:00,57.3,33.8,30.32,WSW,248,2.0,2.0,41,0.00,,,0.00,Wunderground v.1.15,2013-01-16 18:20:00,
2013-01-16 10:26:00,58.0,34.4,30.31,WSW,254,1.0,2.0,41,0.00,,,0.00,Wunderground v.1.15,2013-01-16 18:26:00,
2013-01-16 10:32:00,58.5,34.2,30.31,SW,217,1.0,1.0,40,0.00,,,0.00,Wunderground v.1.15,2013-01-16 18:32:00,
2013-01-16 10:38:00,58.7,33.8,30.30,SW,222,1.0,2.0,39,0.00,,,0.00,Wunderground v.1.15,2013-01-16 18:38:00,
2013-01-16 10:44:00,59.6,33.9,30.30,SW,229,1.0,2.0,38,0.00,,,0.00,Wunderground v.1.15,2013-01-16 18:44:00,
2013-01-16 10:49:00,59.8,34.0,30.29,WNW,294,2.0,5.0,38,0.00,,,0.00,weatherlink.com 1.10,2013-01-16 18:49:00,
2013-01-16 10:56:00,60.3,33.9,30.29,West,267,2.0,2.0,37,0.00,,,0.00,Wunderground v.1.15,2013-01-16 18:56:00,
2013-01-16 11:02:00,60.7,33.6,30.28,WNW,301,2.0,2.0,36,0.00,,,0.00,Wunderground v.1.15,2013-01-16 19:02:00,
2013-01-16 11:08:00,61.0,33.8,30.28,SSW,207,2.0,3.0,36,0.00,,,0.00,Wunderground v.1.15,2013-01-16 19:08:00,
2013-01-16 11:14:00,61.4,34.2,30.27,NW,315,2.0,3.0,36,0.00,,,0.00,Wunderground v.1.15,2013-01-16 19:14:00,
2013-01-16 11:20:00,61.6,33.7,30.27,SW,229,2.0,2.0,35,0.00,,,0.00,Wunderground v.1.15,2013-01-16 19:20:00,
2013-01-16 11:26:00,61.9,33.9,30.26,SSW,202,2.0,3.0,35,0.00,,,0.00,Wunderground v.1.15,2013-01-16 19:26:00,
2013-01-16 11:32:00,62.1,33.4,30.26,SSW,193,3.0,3.0,34,0.00,,,0.00,Wunderground v.1.15,2013-01-16 19:32:00,
2013-01-16 11:38:00,62.8,34.0,30.25,SW,229,2.0,3.0,34,0.00,,,0.00,Wunderground v.1.15,2013-01-16 19:38:00,
2013-01-16 11:44:00,63.5,33.1,30.25,SW,228,2.0,2.0,32,0.00,,,0.00,Wunderground v.1.15,2013-01-16 19:44:00,
2013-01-16 11:50:00,63.9,31.8,30.24,West,262,2.0,2.0,30,0.00,,,0.00,Wunderground v.1.15,2013-01-16 19:50:00,
2013-01-16 11:56:00,64.6,31.6,30.24,West,262,2.0,4.0,29,0.00,,,0.00,Wunderground v.1.15,2013-01-16 19:56:00,
2013-01-16 12:02:00,65.0,31.1,30.24,West,262,2.0,2.0,28,0.00,,,0.00,Wunderground v.1.15,2013-01-16 20:02:00,
2013-01-16 12:08:00,65.3,29.5,30.23,South,169,1.0,2.0,26,0.00,,,0.00,Wunderground v.1.15,2013-01-16 20:08:00,
2013-01-16 12:14:00,65.8,32.6,30.23,West,259,2.0,2.0,29,0.00,,,0.00,Wunderground v.1.15,2013-01-16 20:14:00,
2013-01-16 12:20:00,66.2,31.2,30.22,SW,220,2.0,2.0,27,0.00,,,0.00,Wunderground v.1.15,2013-01-16 20:20:00,
2013-01-16 12:26:00,66.5,29.6,30.22,WNW,297,2.0,3.0,25,0.00,,,0.00,Wunderground v.1.15,2013-01-16 20:26:00,
2013-01-16 12:32:00,66.6,30.6,30.21,WNW,299,2.0,3.0,26,0.00,,,0.00,Wunderground v.1.15,2013-01-16 20:32:00,
2013-01-16 12:38:00,66.7,28.7,30.21,SSW,209,2.0,3.0,24,0.00,,,0.00,Wunderground v.1.15,2013-01-16 20:38:00,
2013-01-16 12:44:00,66.9,29.9,30.20,WNW,300,2.0,6.0,25,0.00,,,0.00,Wunderground v.1.15,2013-01-16 20:44:00,
2013-01-16 12:50:00,66.9,29.9,30.20,SW,217,3.0,3.0,25,0.00,,,0.00,Wunderground v.1.15,2013-01-16 20:50:00,
2013-01-16 12:56:00,67.4,30.3,30.19,West,273,2.0,3.0,25,0.00,,,0.00,Wunderground v.1.15,2013-01-16 20:56:00,
2013-01-16 13:02:00,67.9,29.7,30.19,WSW,257,2.0,2.0,24,0.00,,,0.00,Wunderground v.1.15,2013-01-16 21:02:00,
2013-01-16 13:08:00,68.0,28.8,30.19,SW,225,2.0,5.0,23,0.00,,,0.00,Wunderground v.1.15,2013-01-16 21:08:00,
2013-01-16 13:14:00,67.7,29.6,30.19,SSW,212,3.0,3.0,24,0.00,,,0.00,Wunderground v.1.15,2013-01-16 21:14:00,
2013-01-16 13:20:00,67.7,29.6,30.18,SSW,211,3.0,3.0,24,0.00,,,0.00,Wunderground v.1.15,2013-01-16 21:20:00,
2013-01-16 13:26:00,68.0,29.8,30.18,SSW,211,2.0,3.0,24,0.00,,,0.00,Wunderground v.1.15,2013-01-16 21:26:00,
2013-01-16 13:32:00,68.6,29.3,30.18,SSW,213,1.0,1.0,23,0.00,,,0.00,Wunderground v.1.15,2013-01-16 21:32:00,
2013-01-16 13:38:00,68.8,29.5,30.17,SSW,212,2.0,3.0,23,0.00,,,0.00,Wunderground v.1.15,2013-01-16 21:38:00,
2013-01-16 13:44:00,68.9,29.5,30.17,SW,219,3.0,5.0,23,0.00,,,0.00,Wunderground v.1.15,2013-01-16 21:44:00,
2013-01-16 13:50:00,69.1,29.7,30.17,WSW,254,3.0,3.0,23,0.00,,,0.00,Wunderground v.1.15,2013-01-16 21:50:00,
2013-01-16 13:56:00,69.4,30.0,30.17,SW,214,2.0,3.0,23,0.00,,,0.00,Wunderground v.1.15,2013-01-16 21:56:00,
2013-01-16 14:02:00,69.3,29.9,30.16,WNW,288,3.0,3.0,23,0.00,,,0.00,Wunderground v.1.15,2013-01-16 22:02:00,
2013-01-16 14:08:00,69.5,30.0,30.16,SSW,198,3.0,5.0,23,0.00,,,0.00,Wunderground v.1.15,2013-01-16 22:08:00,
2013-01-16 14:14:00,69.4,30.0,30.16,West,279,3.0,3.0,23,0.00,,,0.00,Wunderground v.1.15,2013-01-16 22:14:00,
2013-01-16 14:20:00,69.5,30.0,30.16,SSW,202,2.0,2.0,23,0.00,,,0.00,Wunderground v.1.15,2013-01-16 22:20:00,
2013-01-16 14:26:00,69.6,29.0,30.16,NW,311,2.0,3.0,22,0.00,,,0.00,Wunderground v.1.15,2013-01-16 22:26:00,
2013-01-16 14:32:00,69.7,29.1,30.16,West,259,2.0,2.0,22,0.00,,,0.00,Wunderground v.1.15,2013-01-16 22:32:00,
2013-01-16 14:38:00,70.1,29.5,30.16,SW,223,2.0,5.0,22,0.00,,,0.00,Wunderground v.1.15,2013-01-16 22:38:00,
2013-01-16 14:44:00,70.3,29.6,30.16,SW,236,3.0,4.0,22,0.00,,,0.00,Wunderground v.1.15,2013-01-16 22:44:00,
2013-01-16 14:50:00,70.0,28.2,30.16,WNW,284,3.0,3.0,21,0.00,,,0.00,Wunderground v.1.15,2013-01-16 22:50:00,
2013-01-16 14:56:00,70.2,28.4,30.16,SSW,196,2.0,4.0,21,0.00,,,0.00,Wunderground v.1.15,2013-01-16 22:56:00,
2013-01-16 15:02:00,70.1,28.3,30.15,West,267,3.0,3.0,21,0.00,,,0.00,Wunderground v.1.15,2013-01-16 23:02:00,
2013-01-16 15:08:00,70.3,28.5,30.15,SW,215,3.0,3.0,21,0.00,,,0.00,Wunderground v.1.15,2013-01-16 23:08:00,
2013-01-16 15:14:00,70.3,29.6,30.15,WSW,252,3.0,3.0,22,0.00,,,0.00,Wunderground v.1.15,2013-01-16 23:14:00,
2013-01-16 15:20:00,70.1,33.6,30.15,West,272,3.0,4.0,26,0.00,,,0.00,Wunderground v.1.15,2013-01-16 23:20:00,
2013-01-16 15:26:00,69.9,33.4,30.15,SSW,194,3.0,4.0,26,0.00,,,0.00,Wunderground v.1.15,2013-01-16 23:26:00,
2013-01-16 15:32:00,69.8,33.3,30.15,West,267,3.0,4.0,26,0.00,,,0.00,Wunderground v.1.15,2013-01-16 23:32:00,
2013-01-16 15:38:00,69.5,33.1,30.15,SW,236,3.0,4.0,26,0.00,,,0.00,Wunderground v.1.15,2013-01-16 23:38:00,
2013-01-16 15:44:00,69.4,33.0,30.15,SW,236,3.0,5.0,26,0.00,,,0.00,Wunderground v.1.15,2013-01-16 23:44:00,
2013-01-16 15:50:00,69.2,32.8,30.15,West,263,3.0,4.0,26,0.00,,,0.00,Wunderground v.1.15,2013-01-16 23:50:00,
2013-01-16 15:56:00,68.5,33.2,30.15,SW,234,3.0,4.0,27,0.00,,,0.00,Wunderground v.1.15,2013-01-16 23:56:00,
2013-01-16 16:02:00,68.4,32.1,30.15,West,266,3.0,3.0,26,0.00,,,0.00,Wunderground v.1.15,2013-01-17 00:02:00,
2013-01-16 16:08:00,67.9,32.7,30.15,West,265,3.0,5.0,27,0.00,,,0.00,Wunderground v.1.15,2013-01-17 00:08:00,
2013-01-16 16:14:00,67.9,33.6,30.15,WSW,248,3.0,5.0,28,0.00,,,0.00,Wunderground v.1.15,2013-01-17 00:14:00,
2013-01-16 16:20:00,67.6,33.3,30.15,West,263,2.0,2.0,28,0.00,,,0.00,Wunderground v.1.15,2013-01-17 00:20:00,
2013-01-16 16:26:00,67.0,34.5,30.15,West,267,3.0,3.0,30,0.00,,,0.00,Wunderground v.1.15,2013-01-17 00:26:00,
2013-01-16 16:32:00,66.4,34.0,30.15,West,260,3.0,4.0,30,0.00,,,0.00,Wunderground v.1.15,2013-01-17 00:32:00,
2013-01-16 16:38:00,66.0,32.8,30.15,WSW,255,3.0,4.0,29,0.00,,,0.00,Wunderground v.1.15,2013-01-17 00:38:00,
2013-01-16 16:44:00,65.5,32.0,30.15,West,261,1.0,4.0,29,0.00,,,0.00,weatherlink.com 1.10,2013-01-17 00:44:00,
2013-01-16 16:50:00,65.0,31.9,30.16,WSW,256,2.0,3.0,29,0.00,,,0.00,Wunderground v.1.15,2013-01-17 00:50:00,
2013-01-16 16:56:00,64.5,33.2,30.16,WSW,248,2.0,3.0,31,0.00,,,0.00,Wunderground v.1.15,2013-01-17 00:56:00,
2013-01-16 17:02:00,63.8,34.9,30.16,West,263,2.0,4.0,34,0.00,,,0.00,Wunderground v.1.15,2013-01-17 01:02:00,
2013-01-16 17:08:00,63.1,33.5,30.16,WSW,248,2.0,4.0,33,0.00,,,0.00,Wunderground v.1.15,2013-01-17 01:08:00,
2013-01-16 17:14:00,62.6,32.3,30.15,WSW,256,2.0,2.0,32,0.00,,,0.00,Wunderground v.1.15,2013-01-17 01:14:00,
2013-01-16 17:20:00,62.2,32.7,30.15,WSW,256,2.0,2.0,33,0.00,,,0.00,Wunderground v.1.15,2013-01-17 01:20:00,
2013-01-16 17:26:00,61.7,33.0,30.16,WSW,256,1.0,2.0,34,0.00,,,0.00,Wunderground v.1.15,2013-01-17 01:26:00,
2013-01-16 17:32:00,61.2,32.6,30.16,WSW,256,1.0,1.0,34,0.00,,,0.00,Wunderground v.1.15,2013-01-17 01:32:00,
2013-01-16 17:38:00,60.9,33.0,30.16,WSW,256,0.0,2.0,35,0.00,,,0.00,weatherlink.com 1.10,2013-01-17 01:38:00,
2013-01-16 17:44:00,60.4,33.3,30.16,WSW,256,0.0,1.0,36,0.00,,,0.00,Wunderground v.1.15,2013-01-17 01:44:00,
2013-01-16 17:50:00,59.9,33.5,30.16,WSW,256,0.0,1.0,37,0.00,,,0.00,Wunderground v.1.15,2013-01-17 01:50:00,
2013-01-16 17:55:00,59.5,34.0,30.16,WSW,256,0.0,1.0,38,0.00,,,0.00,weatherlink.com 1.10,2013-01-17 01:55:00,
2013-01-16 18:02:00,59.0,34.1,30.16,WSW,256,0.0,0.0,39,0.00,,,0.00,Wunderground v.1.15,2013-01-17 02:02:00,
2013-01-16 18:08:00,58.7,34.4,30.16,WSW,256,0.0,1.0,40,0.00,,,0.00,Wunderground v.1.15,2013-01-17 02:08:00,
2013-01-16 18:14:00,58.4,35.0,30.16,WSW,256,0.0,1.0,41,0.00,,,0.00,weatherlink.com 1.10,2013-01-17 02:14:00,
2013-01-16 18:20:00,58.0,36.2,30.16,WSW,256,0.0,1.0,44,0.00,,,0.00,Wunderground v.1.15,2013-01-17 02:20:00,
2013-01-16 18:26:00,57.6,36.4,30.16,WSW,256,0.0,1.0,45,0.00,,,0.00,Wunderground v.1.15,2013-01-17 02:26:00,
2013-01-16 18:32:00,57.3,37.2,30.16,WSW,256,1.0,1.0,47,0.00,,,0.00,Wunderground v.1.15,2013-01-17 02:32:00,
2013-01-16 18:38:00,57.0,37.0,30.16,WSW,256,0.0,1.0,47,0.00,,,0.00,Wunderground v.1.15,2013-01-17 02:38:00,
2013-01-16 18:44:00,56.8,37.3,30.16,WSW,256,0.0,1.0,48,0.00,,,0.00,Wunderground v.1.15,2013-01-17 02:44:00,
2013-01-16 18:50:00,56.4,37.5,30.16,WSW,256,0.0,0.0,49,0.00,,,0.00,Wunderground v.1.15,2013-01-17 02:50:00,
2013-01-16 18:56:00,56.0,37.6,30.16,WSW,256,0.0,0.0,50,0.00,,,0.00,Wunderground v.1.15,2013-01-17 02:56:00,
2013-01-16 19:02:00,55.4,37.6,30.15,WSW,256,0.0,0.0,51,0.00,,,0.00,Wunderground v.1.15,2013-01-17 03:02:00,
2013-01-16 19:08:00,54.9,37.6,30.15,WSW,256,0.0,0.0,52,0.00,,,0.00,Wunderground v.1.15,2013-01-17 03:08:00,
2013-01-16 19:14:00,54.3,37.5,30.16,WSW,256,0.0,0.0,53,0.00,,,0.00,Wunderground v.1.15,2013-01-17 03:14:00,
2013-01-16 19:20:00,53.7,37.0,30.16,WSW,256,0.0,1.0,53,0.00,,,0.00,Wunderground v.1.15,2013-01-17 03:20:00,
2013-01-16 19:26:00,53.1,37.3,30.15,WSW,256,0.0,1.0,55,0.00,,,0.00,Wunderground v.1.15,2013-01-17 03:26:00,
2013-01-16 19:32:00,52.7,37.4,30.15,WSW,256,0.0,0.0,56,0.00,,,0.00,Wunderground v.1.15,2013-01-17 03:32:00,
2013-01-16 19:38:00,52.2,37.0,30.15,WSW,256,0.0,0.0,56,0.00,,,0.00,Wunderground v.1.15,2013-01-17 03:38:00,
2013-01-16 19:44:00,51.8,37.0,30.15,WSW,256,0.0,0.0,57,0.00,,,0.00,Wunderground v.1.15,2013-01-17 03:44:00,
2013-01-16 19:50:00,51.4,36.7,30.15,WSW,256,0.0,0.0,57,0.00,,,0.00,Wunderground v.1.15,2013-01-17 03:50:00,
2013-01-16 19:56:00,51.0,36.7,30.15,WSW,256,0.0,0.0,58,0.00,,,0.00,Wunderground v.1.15,2013-01-17 03:56:00,
2013-01-16 20:02:00,50.7,36.5,30.15,WSW,256,0.0,0.0,58,0.00,,,0.00,Wunderground v.1.15,2013-01-17 04:02:00,
2013-01-16 20:08:00,50.4,36.2,30.15,WSW,256,0.0,0.0,58,0.00,,,0.00,Wunderground v.1.15,2013-01-17 04:08:00,
2013-01-16 20:14:00,50.0,36.2,30.15,WSW,256,0.0,0.0,59,0.00,,,0.00,Wunderground v.1.15,2013-01-17 04:14:00,
2013-01-16 20:20:00,49.7,35.9,30.14,WSW,256,0.0,1.0,59,0.00,,,0.00,Wunderground v.1.15,2013-01-17 04:20:00,
2013-01-16 20:26:00,49.4,35.7,30.14,WSW,256,0.0,1.0,59,0.00,,,0.00,Wunderground v.1.15,2013-01-17 04:26:00,
2013-01-16 20:32:00,49.1,35.4,30.14,WSW,256,0.0,0.0,59,0.00,,,0.00,Wunderground v.1.15,2013-01-17 04:32:00,
2013-01-16 20:38:00,48.7,35.4,30.14,WSW,256,0.0,0.0,60,0.00,,,0.00,Wunderground v.1.15,2013-01-17 04:38:00,
2013-01-16 20:44:00,48.5,35.2,30.14,WSW,256,0.0,0.0,60,0.00,,,0.00,Wunderground v.1.15,2013-01-17 04:44:00,
2013-01-16 20:50:00,48.1,34.9,30.14,WSW,256,0.0,0.0,60,0.00,,,0.00,Wunderground v.1.15,2013-01-17 04:50:00,
2013-01-16 20:56:00,47.9,35.1,30.13,WSW,256,0.0,0.0,61,0.00,,,0.00,Wunderground v.1.15,2013-01-17 04:56:00,
2013-01-16 21:02:00,47.7,34.9,30.13,WSW,256,0.0,0.0,61,0.00,,,0.00,Wunderground v.1.15,2013-01-17 05:02:00,
2013-01-16 21:06:00,47.5,34.7,30.13,WSW,256,0.0,0.0,61,0.00,,,0.00,Wunderground v.1.15,2013-01-17 05:06:00,
2013-01-16 21:08:00,47.4,35.0,30.13,WSW,256,0.0,0.0,62,0.00,,,0.00,Wunderground v.1.15,2013-01-17 05:08:00,
2013-01-16 21:10:00,47.4,34.6,30.13,WSW,256,0.0,0.0,61,0.00,,,0.00,Wunderground v.1.15,2013-01-17 05:10:00,
2013-01-16 21:16:00,47.2,34.8,30.13,WSW,256,0.0,0.0,62,0.00,,,0.00,Wunderground v.1.15,2013-01-17 05:16:00,
2013-01-16 21:22:00,47.0,34.6,30.13,WSW,256,0.0,0.0,62,0.00,,,0.00,Wunderground v.1.15,2013-01-17 05:22:00,
2013-01-16 21:28:00,46.8,35.3,30.13,WSW,256,0.0,0.0,64,0.00,,,0.00,Wunderground v.1.15,2013-01-17 05:28:00,
2013-01-16 21:34:00,46.5,35.0,30.13,WSW,256,0.0,0.0,64,0.00,,,0.00,Wunderground v.1.15,2013-01-17 05:34:00,
2013-01-16 21:40:00,46.3,34.8,30.12,WSW,256,0.0,0.0,64,0.00,,,0.00,Wunderground v.1.15,2013-01-17 05:40:00,
2013-01-16 21:46:00,46.2,35.0,30.12,WSW,256,0.0,1.0,65,0.00,,,0.00,weatherlink.com 1.10,2013-01-17 05:46:00,
2013-01-16 21:52:00,45.9,34.8,30.13,WSW,256,0.0,0.0,65,0.00,,,0.00,Wunderground v.1.15,2013-01-17 05:52:00,
2013-01-16 21:58:00,45.7,35.0,30.13,WSW,256,0.0,0.0,66,0.00,,,0.00,Wunderground v.1.15,2013-01-17 05:58:00,
2013-01-16 22:04:00,45.5,35.2,30.13,WSW,256,0.0,1.0,67,0.00,,,0.00,Wunderground v.1.15,2013-01-17 06:04:00,
2013-01-16 22:10:00,45.4,35.1,30.13,WSW,256,0.0,0.0,67,0.00,,,0.00,Wunderground v.1.15,2013-01-17 06:10:00,
2013-01-16 22:16:00,45.3,35.0,30.13,WSW,256,0.0,0.0,67,0.00,,,0.00,Wunderground v.1.15,2013-01-17 06:16:00,
2013-01-16 22:22:00,45.2,35.3,30.13,WSW,256,0.0,0.0,68,0.00,,,0.00,Wunderground v.1.15,2013-01-17 06:22:00,
2013-01-16 22:28:00,45.0,35.1,30.12,WSW,256,0.0,1.0,68,0.00,,,0.00,Wunderground v.1.15,2013-01-17 06:28:00,
2013-01-16 22:34:00,45.0,35.4,30.12,WSW,256,0.0,0.0,69,0.00,,,0.00,Wunderground v.1.15,2013-01-17 06:34:00,
2013-01-16 22:39:00,44.8,35.0,30.12,WSW,256,0.0,1.0,69,0.00,,,0.00,weatherlink.com 1.10,2013-01-17 06:39:00,
2013-01-16 22:46:00,44.6,35.1,30.12,WSW,256,0.0,0.0,69,0.00,,,0.00,Wunderground v.1.15,2013-01-17 06:46:00,
2013-01-16 22:52:00,44.3,35.1,30.12,WSW,256,0.0,0.0,70,0.00,,,0.00,Wunderground v.1.15,2013-01-17 06:52:00,
2013-01-16 22:58:00,44.2,35.0,30.12,WSW,256,0.0,0.0,70,0.00,,,0.00,weatherlink.com 1.10,2013-01-17 06:58:00,
2013-01-16 23:04:00,44.0,34.8,30.12,WSW,256,0.0,0.0,70,0.00,,,0.00,Wunderground v.1.15,2013-01-17 07:04:00,
2013-01-16 23:10:00,43.9,35.1,30.12,WSW,256,0.0,0.0,71,0.00,,,0.00,Wunderground v.1.15,2013-01-17 07:10:00,
2013-01-16 23:15:00,43.8,35.0,30.12,WSW,256,0.0,0.0,71,0.00,,,0.00,weatherlink.com 1.10,2013-01-17 07:15:00,
2013-01-16 23:22:00,43.6,34.8,30.12,WSW,256,0.0,0.0,71,0.00,,,0.00,Wunderground v.1.15,2013-01-17 07:22:00,
2013-01-16 23:28:00,43.4,35.0,30.12,WSW,256,0.0,0.0,72,0.00,,,0.00,Wunderground v.1.15,2013-01-17 07:28:00,
2013-01-16 23:33:00,43.4,35.0,30.12,WSW,256,0.0,1.0,72,0.00,,,0.00,weatherlink.com 1.10,2013-01-17 07:33:00,
2013-01-16 23:40:00,43.4,35.0,30.12,WSW,256,0.0,0.0,72,0.00,,,0.00,Wunderground v.1.15,2013-01-17 07:40:00,
2013-01-16 23:46:00,43.3,35.2,30.12,WSW,256,0.0,1.0,73,0.00,,,0.00,Wunderground v.1.15,2013-01-17 07:46:00,
2013-01-16 23:52:00,43.3,35.2,30.12,WSW,256,0.0,0.0,73,0.00,,,0.00,Wunderground v.1.15,2013-01-17 07:52:00,
2013-01-16 23:58:00,43.2,35.1,30.11,WSW,256,0.0,0.0,73,0.00,,,0.00,Wunderground v.1.15,2013-01-17 07:58:00,